Capitol Logistics 791


WSSS
Changi International Airport
Singapore, SG
YSSY
Kingsford Smith International Airport
Sydney, AU

Route Details

Aircraft Information
Primary: Boeing 747-400BCF
Backup: Boeing 777-200LRF
Route Data
Distance: 3402nm
Sched. Duration: 7h 15m
Avg. Duration: 7h 29m (+15m)
Times Flown: 2
Recm'd Route: ANIT7B ANITO/M082F310 B470 PKP/N0496F310 L511 RUPKA/N0492F330 L511 TARUN T20 BRM/N0488F350 G222 AGAGO/N0483F370 G222 PKS H319 TARAL Y59 RIVET
Planned Altitude: 31,000ft
Origin Wx: WSSS 040000Z 16006KT 9999 FEW016 BKN300 29/25 Q1010 NOSIG
Dest. Wx: YSSY 040000Z 25012KT 9999 FEW025 11/06 Q1020
Notes:

Financial History
Total Freight: 268,658lbs
Average Load: 134,329lbs/flt
Fuel Used: 324,585lbs
Avg. Fuel Used: 162,293lbs/flt
Fuel Expense: $308,356
Avg. Fuel Expense: $154,178
Avg. Fuel Cost: $0.95/lbs
Total Gross Income: $1,182,595
Pilot Pay: $468
Total Expenses: $127,824
Total Revenue: $742,800
Average Revenue: $591,297.31